North Zulch, TX (77872)

10:56 PM CDT on September 17, 2014 (GMT -0500)
AmeriDutch Ranch | Change Station
CLOSE
Current Station
Personal Weather Station
Location: Normangee, TX
Elevation: 344 ft
Nearby Weather Stations
Active Advisory: Areal Flood Watch

Elev 344 ft 31.03 °N, 96.20 °W | Updated 2 minutes ago

Rain
Rain
74.7 °F
Feels Like 72 °F
N
0.0
Wind Variable Wind from WSW

Today
High -- | Low -- °F
--% Chance of Precip.
Yesterday
High -- | Low -- °F
Precip. -- in
7:09 AM 7:27 PM
Waning Crescent, 30% visible
Pressure 29.93 in
Visibility 10.0 miles
Clouds Few 800 ft
Heat Index 72 °F
Dew Point 74 °F
Humidity 97%
Rainfall 0.00 in
Snow Depth Not available.
UV 0 out of 12
Pollen 7.30 out of 12
Air Quality Not available.
Flu Activity Not available.
SPECI KCLL 180319Z 16006KT 10SM FEW008 25/23 A2993 RMK AO2 LTG DSNT SW T02500233

More Conditions Fewer Conditions

Pressure 29.93 in
Visibility 10.0 miles
Clouds Few 800 ft
Heat Index 72 °F
Dew Point 74 °F
Humidity 97%
Rainfall 0.00 in
Snow Depth Not available.
UV 0 out of 12
Pollen 7.30 out of 12
Air Quality Not available.
Flu Activity Not available.
SPECI KCLL 180319Z 16006KT 10SM FEW008 25/23 A2993 RMK AO2 LTG DSNT SW T02500233

More Conditions Fewer Conditions

10-Day Weather Forecast

Almanac

Astronomy

Sep. 17, 2014 Rise Set
Actual Time 7:09 AM CDT 7:27 PM CDT
Civil Twilight 6:45 AM CDT 7:51 PM CDT
Nautical Twilight 6:17 AM CDT 8:19 PM CDT
Astronomical Twilight 5:48 AM CDT 8:48 PM CDT
Moon 1:27 AM CDT (9/17) 3:22 PM CDT (9/17)
Length of Visible Light 13h 05m
Length of Day
12h 17m
Tomorrow will be 1m 52s shorter.
Waning Crescent, 30% of the Moon is Illuminated
Today
Waning Crescent
Sep 24
New
Oct 1
First Quarter
Oct 8
Full
Oct 15
Last Quarter

Today's Extremes

State Highs State Lows

Community

WunderPhotos

Upload Photos

1,754,283 photos uploaded!

Nearby

Snow Depth

Station Depth Elevation
No new snow has been reported.

Earthquake Activity

City Distance Mag. Time & Date
No recent earthquake activity has been reported nearby.
Minimum magnitude displayed is 2.5.

Coastal Water Temperatures

Place Temperature
No Stations Reporting

Nearby Weather Stations